Time;durP1;ratioP1;P1;durP2;ratioP2;P2;SDS_P1;SDS_P2;PMS_P1;PMS_P2;Temp;Humidity;BMP_temperature;BMP_pressure;BME280_temperature;BME280_humidity;BME280_pressure;Samples;Min_cycle;Max_cycle;Signal;HPM_P1;HPM_P2
2021/08/18 00:00:13;;;;;;;45.42;28.67;;;24.80;57.10;;;;;;5056713;28;20033;-37
2021/08/18 00:02:39;;;;;;;40.58;28.65;;;24.80;57.40;;;;;;5056167;28;20424;-37
2021/08/18 00:05:07;;;;;;;44.00;28.27;;;24.70;57.60;;;;;;5056415;28;20041;-37
2021/08/18 00:07:33;;;;;;;44.78;30.33;;;24.70;57.50;;;;;;5056063;28;20067;-37
2021/08/18 00:09:59;;;;;;;43.50;28.48;;;24.60;57.60;;;;;;5056290;28;20033;-37
2021/08/18 00:12:25;;;;;;;40.97;27.60;;;24.50;57.70;;;;;;5055930;28;20023;-37
2021/08/18 00:14:50;;;;;;;50.35;31.73;;;24.50;57.90;;;;;;5056078;28;20029;-37
2021/08/18 00:17:16;;;;;;;44.42;29.00;;;24.40;58.20;;;;;;5055501;28;20079;-37
2021/08/18 00:19:42;;;;;;;51.35;28.77;;;24.40;58.30;;;;;;5055563;28;20033;-36
2021/08/18 00:22:08;;;;;;;44.15;29.23;;;24.30;58.60;;;;;;5055895;28;20112;-37
2021/08/18 00:24:33;;;;;;;39.35;29.98;;;24.30;58.70;;;;;;5055952;28;20029;-36
2021/08/18 00:26:59;;;;;;;39.10;28.33;;;24.30;58.80;;;;;;5054923;28;20025;-37
2021/08/18 00:29:25;;;;;;;45.60;30.70;;;24.20;58.80;;;;;;5056076;28;20356;-37
2021/08/18 00:31:50;;;;;;;50.35;30.10;;;24.20;59.80;;;;;;5055704;28;20431;-37
2021/08/18 00:34:16;;;;;;;47.05;28.17;;;24.20;59.40;;;;;;5056095;28;20025;-37
2021/08/18 00:36:42;;;;;;;49.22;31.25;;;24.10;59.30;;;;;;5055804;28;20325;-37
2021/08/18 00:39:07;;;;;;;58.65;35.60;;;24.10;59.40;;;;;;5055738;28;20025;-36
2021/08/18 00:41:33;;;;;;;52.83;34.72;;;24.10;59.60;;;;;;5056084;28;20033;-37
2021/08/18 00:43:59;;;;;;;46.72;30.27;;;24.00;59.70;;;;;;5055906;28;20067;-37
2021/08/18 00:46:25;;;;;;;43.67;30.10;;;24.00;59.70;;;;;;5055954;28;20021;-36
2021/08/18 00:48:50;;;;;;;44.17;30.05;;;23.90;59.60;;;;;;5055573;28;20026;-36
2021/08/18 00:51:16;;;;;;;55.38;32.40;;;23.90;59.70;;;;;;5056098;28;20033;-37
2021/08/18 00:53:42;;;;;;;53.55;35.03;;;23.90;59.90;;;;;;5055819;28;20029;-37
2021/08/18 00:56:09;;;;;;;47.53;31.10;;;23.80;59.90;;;;;;5056077;28;20067;-37
2021/08/18 00:58:35;;;;;;;43.67;30.90;;;23.80;60.00;;;;;;5055859;28;20457;-37
2021/08/18 01:01:01;;;;;;;45.80;32.60;;;23.70;59.90;;;;;;5055994;28;20124;-36
2021/08/18 01:03:28;;;;;;;43.83;30.45;;;23.60;60.00;;;;;;5055684;28;20029;-37
2021/08/18 01:05:54;;;;;;;52.05;31.05;;;23.60;60.30;;;;;;5056082;28;20096;-37
2021/08/18 01:08:20;;;;;;;50.80;33.90;;;23.50;60.40;;;;;;5055442;28;20328;-37
2021/08/18 01:10:46;;;;;;;48.78;33.15;;;23.50;60.70;;;;;;5055806;28;20033;-37
2021/08/18 01:13:12;;;;;;;57.33;36.17;;;23.50;61.00;;;;;;5055475;28;20309;-37
2021/08/18 01:15:37;;;;;;;50.10;30.80;;;23.50;61.20;;;;;;5055456;28;20060;-37
2021/08/18 01:18:05;;;;;;;50.55;32.85;;;23.40;61.10;;;;;;5055779;28;20032;-37
2021/08/18 01:20:38;;;;;;;48.53;36.00;;;23.40;61.20;;;;;;5055596;28;20033;-37
2021/08/18 01:23:06;;;;;;;50.50;32.80;;;23.40;61.30;;;;;;5055245;28;20059;-36
2021/08/18 01:25:32;;;;;;;48.55;31.77;;;23.40;61.40;;;;;;5055697;28;20036;-36
2021/08/18 01:28:00;;;;;;;50.80;33.33;;;23.30;61.40;;;;;;5054863;28;20040;-37
2021/08/18 01:30:28;;;;;;;54.88;33.53;;;23.30;61.50;;;;;;5057795;28;20162;-37
2021/08/18 01:32:59;;;;;;;56.38;36.15;;;23.30;61.60;;;;;;5059373;28;20330;-37
2021/08/18 01:35:31;;;;;;;43.88;32.45;;;23.30;61.50;;;;;;5059279;28;20025;-37
2021/08/18 01:37:58;;;;;;;60.30;40.03;;;23.20;61.60;;;;;;5059364;28;20405;-36
2021/08/18 01:40:24;;;;;;;49.78;33.92;;;23.20;61.80;;;;;;5059413;28;20037;-36
2021/08/18 01:42:51;;;;;;;52.63;35.33;;;23.10;61.80;;;;;;5058832;28;20037;-37
2021/08/18 01:45:23;;;;;;;57.38;33.75;;;23.10;61.90;;;;;;5057947;28;20098;-36
2021/08/18 01:47:50;;;;;;;56.42;34.30;;;23.10;62.10;;;;;;5059079;28;20033;-37
2021/08/18 01:50:16;;;;;;;51.35;37.38;;;23.10;62.30;;;;;;5058944;28;20049;-36
2021/08/18 01:52:42;;;;;;;54.63;38.70;;;23.00;62.40;;;;;;5058943;28;20451;-37
2021/08/18 01:55:09;;;;;;;42.05;30.13;;;22.90;62.40;;;;;;5059016;28;20290;-36
2021/08/18 01:57:35;;;;;;;45.92;32.38;;;22.90;62.30;;;;;;5058588;28;20361;-36
2021/08/18 02:00:00;;;;;;;49.22;36.08;;;22.90;62.10;;;;;;5059130;28;20060;-37
2021/08/18 02:02:29;;;;;;;52.05;34.85;;;22.80;62.30;;;;;;5058456;28;20324;-36
2021/08/18 02:04:56;;;;;;;50.03;37.35;;;22.80;62.40;;;;;;5058979;28;20455;-37
2021/08/18 02:07:22;;;;;;;53.28;34.17;;;22.80;62.40;;;;;;5058352;28;20047;-36
2021/08/18 02:09:48;;;;;;;51.80;36.97;;;22.80;62.40;;;;;;5058924;28;20029;-37
2021/08/18 02:12:14;;;;;;;52.38;35.08;;;22.80;62.40;;;;;;5058519;28;20309;-37
2021/08/18 02:14:40;;;;;;;50.08;34.03;;;22.70;62.50;;;;;;5058751;28;20040;-37
2021/08/18 02:17:06;;;;;;;45.40;31.33;;;22.70;62.40;;;;;;5058128;28;20049;-36
2021/08/18 02:19:32;;;;;;;52.08;32.50;;;22.70;62.40;;;;;;5058562;28;20167;-36
2021/08/18 02:21:58;;;;;;;46.40;33.45;;;22.70;62.40;;;;;;5058084;28;20420;-36
2021/08/18 02:24:23;;;;;;;52.83;35.40;;;22.70;62.50;;;;;;5058490;28;20037;-37
2021/08/18 02:26:49;;;;;;;49.35;28.63;;;22.70;62.70;;;;;;5058291;28;20317;-37
2021/08/18 02:29:15;;;;;;;46.60;29.63;;;22.70;62.90;;;;;;5057958;28;20064;-37
2021/08/18 02:31:41;;;;;;;45.90;29.33;;;22.70;62.90;;;;;;5057790;28;20027;-36
2021/08/18 02:34:09;;;;;;;44.15;30.77;;;22.80;63.10;;;;;;5057847;28;20032;-36
2021/08/18 02:36:35;;;;;;;45.30;30.63;;;22.80;63.10;;;;;;5058187;28;20421;-37
2021/08/18 02:39:02;;;;;;;48.80;32.78;;;22.80;63.30;;;;;;5057896;28;20056;-37
2021/08/18 02:41:28;;;;;;;41.00;23.98;;;22.80;63.40;;;;;;5057005;28;20021;-36
2021/08/18 02:43:53;;;;;;;40.33;27.42;;;22.80;63.60;;;;;;5057561;28;20025;-37
2021/08/18 02:46:19;;;;;;;33.83;23.88;;;22.80;64.10;;;;;;5057305;28;20036;-37
2021/08/18 02:48:45;;;;;;;35.65;23.02;;;22.80;64.30;;;;;;5057485;28;20028;-37
2021/08/18 02:51:10;;;;;;;34.42;23.58;;;22.80;64.40;;;;;;5057759;28;20079;-36
2021/08/18 02:53:36;;;;;;;33.58;24.80;;;22.80;64.70;;;;;;5057202;28;20028;-36
2021/08/18 02:56:02;;;;;;;37.13;26.67;;;22.80;64.90;;;;;;5057938;28;20033;-37
2021/08/18 02:58:28;;;;;;;33.63;25.02;;;22.80;65.20;;;;;;5057366;28;20126;-36
2021/08/18 03:00:53;;;;;;;47.22;25.90;;;22.80;65.40;;;;;;5057467;28;20040;-37
2021/08/18 03:03:19;;;;;;;36.65;27.17;;;22.80;65.60;;;;;;5056889;28;20086;-36
2021/08/18 03:05:45;;;;;;;31.52;22.08;;;22.80;66.00;;;;;;5057393;28;20112;-36
2021/08/18 03:08:11;;;;;;;26.75;22.02;;;22.80;66.20;;;;;;5057456;28;20079;-36
2021/08/18 03:10:37;;;;;;;25.08;20.52;;;22.70;66.40;;;;;;5057411;28;20044;-36
2021/08/18 03:13:03;;;;;;;30.33;19.98;;;22.70;66.50;;;;;;5057304;28;20036;-36
2021/08/18 03:15:29;;;;;;;25.27;19.25;;;22.70;66.60;;;;;;5057146;28;20048;-36
2021/08/18 03:17:54;;;;;;;31.60;22.83;;;22.70;66.70;;;;;;5057159;28;20021;-36
2021/08/18 03:20:20;;;;;;;26.60;19.63;;;22.70;66.90;;;;;;5057392;28;20393;-36
2021/08/18 03:22:46;;;;;;;29.10;17.50;;;22.70;67.10;;;;;;5057128;28;20100;-36
2021/08/18 03:25:12;;;;;;;28.30;21.58;;;22.70;67.20;;;;;;5057027;28;20425;-36
2021/08/18 03:27:38;;;;;;;23.08;19.25;;;22.70;67.40;;;;;;5057020;28;20071;-37
2021/08/18 03:30:08;;;;;;;24.88;18.83;;;22.80;67.70;;;;;;5057212;28;20064;-36
2021/08/18 03:32:34;;;;;;;20.80;17.48;;;22.80;68.10;;;;;;5056618;28;20025;-37
2021/08/18 03:34:59;;;;;;;23.77;17.88;;;22.80;68.10;;;;;;5056820;28;20052;-36
2021/08/18 03:37:25;;;;;;;27.33;19.67;;;22.80;68.30;;;;;;5056503;28;20032;-36
2021/08/18 03:39:51;;;;;;;20.13;15.90;;;22.80;68.70;;;;;;5056955;28;20029;-36
2021/08/18 03:42:16;;;;;;;19.48;13.82;;;22.90;68.80;;;;;;5056561;28;20029;-36
2021/08/18 03:44:42;;;;;;;22.13;16.40;;;22.90;69.00;;;;;;5056735;28;20323;-36
2021/08/18 03:47:08;;;;;;;16.40;13.68;;;23.00;69.20;;;;;;5056651;28;20036;-37
2021/08/18 03:49:33;;;;;;;22.73;14.45;;;23.00;69.20;;;;;;5056822;28;20069;-36
2021/08/18 03:51:59;;;;;;;20.10;16.02;;;23.00;69.40;;;;;;5056240;28;20405;-36
2021/08/18 03:54:25;;;;;;;18.65;12.82;;;23.00;69.50;;;;;;5056522;28;20114;-36
2021/08/18 03:56:51;;;;;;;15.82;13.35;;;23.10;69.50;;;;;;5056320;28;20028;-36
2021/08/18 03:59:16;;;;;;;22.30;15.65;;;23.10;69.60;;;;;;5056674;28;20091;-37
2021/08/18 04:01:42;;;;;;;17.73;14.00;;;23.10;69.80;;;;;;5056234;28;20037;-36
2021/08/18 04:04:08;;;;;;;15.43;13.48;;;23.20;69.90;;;;;;5056501;28;20028;-36
2021/08/18 04:06:33;;;;;;;17.42;14.63;;;23.20;70.10;;;;;;5056416;28;20359;-36
2021/08/18 04:08:59;;;;;;;14.27;10.88;;;23.30;70.10;;;;;;5056245;28;20304;-36
2021/08/18 04:11:25;;;;;;;20.95;17.38;;;23.30;70.10;;;;;;5056226;28;20468;-37
2021/08/18 04:13:51;;;;;;;20.15;15.65;;;23.40;70.30;;;;;;5056421;28;20020;-36
2021/08/18 04:16:17;;;;;;;15.45;9.45;;;23.40;70.20;;;;;;5055947;28;20127;-36
2021/08/18 04:18:44;;;;;;;20.27;13.73;;;23.50;70.30;;;;;;5055662;28;20433;-36
2021/08/18 04:21:11;;;;;;;15.13;11.30;;;23.50;70.30;;;;;;5056383;28;20413;-36
2021/08/18 04:23:36;;;;;;;14.27;9.55;;;23.50;69.80;;;;;;5055712;28;20124;-36
2021/08/18 04:26:02;;;;;;;14.50;11.70;;;23.60;69.60;;;;;;5056076;28;20112;-36
2021/08/18 04:28:28;;;;;;;11.55;9.52;;;23.70;69.40;;;;;;5055929;28;20416;-36
2021/08/18 04:30:54;;;;;;;12.23;9.40;;;23.70;69.30;;;;;;5056204;28;20063;-36
2021/08/18 04:33:20;;;;;;;15.70;11.18;;;23.80;69.10;;;;;;5055502;28;20020;-36
2021/08/18 04:35:45;;;;;;;12.30;9.68;;;23.80;68.70;;;;;;5055560;28;20110;-37
2021/08/18 04:38:11;;;;;;;14.70;10.48;;;23.90;68.40;;;;;;5055345;28;20021;-37
2021/08/18 04:40:36;;;;;;;13.95;12.50;;;23.90;68.30;;;;;;5055622;28;20435;-36
2021/08/18 04:43:02;;;;;;;11.23;8.68;;;23.90;67.90;;;;;;5055868;28;20082;-37
2021/08/18 04:45:28;;;;;;;14.52;13.07;;;24.00;67.80;;;;;;5055709;28;20061;-37
2021/08/18 04:47:54;;;;;;;15.70;10.07;;;24.00;68.10;;;;;;5055414;28;20433;-37
2021/08/18 04:50:20;;;;;;;11.55;8.77;;;24.10;67.50;;;;;;5055693;28;20021;-36
2021/08/18 04:52:46;;;;;;;10.95;9.77;;;24.10;67.30;;;;;;5054383;28;20032;-37
2021/08/18 04:55:13;;;;;;;12.55;9.70;;;24.10;67.10;;;;;;5055612;28;20025;-36
2021/08/18 04:57:39;;;;;;;11.93;10.80;;;24.20;67.20;;;;;;5055619;28;20538;-37
2021/08/18 05:00:06;;;;;;;16.10;11.45;;;24.20;67.00;;;;;;5055937;28;20119;-37
2021/08/18 05:02:35;;;;;;;21.67;10.40;;;24.30;67.10;;;;;;5055636;28;20033;-36
2021/08/18 05:05:04;;;;;;;10.50;9.25;;;24.30;67.00;;;;;;5057608;28;20048;-37
2021/08/18 05:07:30;;;;;;;12.90;10.80;;;24.30;66.90;;;;;;5059099;28;20043;-36
2021/08/18 05:09:56;;;;;;;12.65;11.45;;;24.30;66.40;;;;;;5059500;28;20037;-37
2021/08/18 05:12:22;;;;;;;16.23;10.02;;;24.40;66.60;;;;;;5058788;28;20043;-37
2021/08/18 05:14:47;;;;;;;13.25;10.52;;;24.40;66.70;;;;;;5059352;28;20051;-36
2021/08/18 05:17:13;;;;;;;15.02;11.32;;;24.40;66.60;;;;;;5058737;28;20098;-36
2021/08/18 05:19:39;;;;;;;10.70;9.70;;;24.40;66.60;;;;;;5059152;28;20059;-36
2021/08/18 05:22:04;;;;;;;13.05;11.73;;;24.50;66.70;;;;;;5059159;28;20021;-36
2021/08/18 05:24:31;;;;;;;10.52;9.43;;;24.50;66.50;;;;;;5059297;28;20041;-37
2021/08/18 05:26:57;;;;;;;16.20;10.73;;;24.50;66.10;;;;;;5059256;28;20191;-36
2021/08/18 05:29:22;;;;;;;12.07;10.52;;;24.50;66.00;;;;;;5058947;28;20406;-36
2021/08/18 05:31:48;;;;;;;16.25;13.13;;;24.60;66.10;;;;;;5058971;28;20282;-36
2021/08/18 05:34:14;;;;;;;12.43;9.15;;;24.60;65.90;;;;;;5058947;28;20341;-37
2021/08/18 05:36:40;;;;;;;11.90;10.57;;;24.60;66.10;;;;;;5058817;28;20021;-36
2021/08/18 05:39:05;;;;;;;16.30;14.68;;;24.60;66.00;;;;;;5058593;28;20036;-37
2021/08/18 05:41:32;;;;;;;11.95;10.50;;;24.70;66.00;;;;;;5058560;28;20104;-36
2021/08/18 05:43:58;;;;;;;16.38;12.07;;;24.60;65.90;;;;;;5058231;28;20029;-36
2021/08/18 05:46:24;;;;;;;13.50;9.35;;;24.70;65.90;;;;;;5058540;28;20039;-36
2021/08/18 05:48:49;;;;;;;13.85;12.55;;;24.70;65.80;;;;;;5058521;28;20476;-36
2021/08/18 05:51:15;;;;;;;9.02;8.20;;;24.70;66.00;;;;;;5058961;28;20037;-36
2021/08/18 05:53:41;;;;;;;17.48;15.43;;;24.70;66.10;;;;;;5057783;28;20083;-36
2021/08/18 05:56:06;;;;;;;12.15;10.85;;;24.80;66.30;;;;;;5058346;28;20287;-37
2021/08/18 05:58:32;;;;;;;18.25;15.32;;;24.80;66.30;;;;;;5058244;28;20104;-36
2021/08/18 06:00:58;;;;;;;14.80;13.50;;;24.80;66.10;;;;;;5058721;28;20060;-36
2021/08/18 06:03:23;;;;;;;12.75;11.48;;;24.80;65.90;;;;;;5058228;28;20440;-38
2021/08/18 06:05:49;;;;;;;14.88;11.77;;;24.80;66.00;;;;;;5058584;28;20301;-36
2021/08/18 06:08:15;;;;;;;13.48;9.55;;;24.80;66.20;;;;;;5058547;28;20321;-36
2021/08/18 06:10:40;;;;;;;14.05;12.75;;;24.80;66.10;;;;;;5058404;28;20044;-36
2021/08/18 06:13:06;;;;;;;14.38;9.45;;;24.80;66.10;;;;;;5057963;28;20029;-36
2021/08/18 06:15:32;;;;;;;16.83;13.60;;;24.90;66.00;;;;;;5057375;28;20073;-36
2021/08/18 06:17:58;;;;;;;13.27;9.85;;;24.90;66.00;;;;;;5057791;28;20025;-37
2021/08/18 06:20:25;;;;;;;11.60;10.10;;;25.00;66.10;;;;;;5057785;28;20371;-36
2021/08/18 06:22:51;;;;;;;13.63;12.32;;;25.00;65.80;;;;;;5057912;28;20329;-37
2021/08/18 06:25:16;;;;;;;18.65;10.98;;;25.00;65.70;;;;;;5057778;28;20043;-36
2021/08/18 06:27:42;;;;;;;11.18;10.05;;;25.00;65.60;;;;;;5057380;28;20033;-36
2021/08/18 06:30:09;;;;;;;11.85;10.48;;;25.10;65.60;;;;;;5057679;28;20409;-37
2021/08/18 06:32:35;;;;;;;15.65;11.10;;;25.10;65.50;;;;;;5057216;28;20029;-36
2021/08/18 06:35:01;;;;;;;15.70;14.23;;;25.20;65.60;;;;;;5057764;28;20168;-36
2021/08/18 06:37:27;;;;;;;13.65;11.52;;;25.20;65.40;;;;;;5057545;28;20025;-36
2021/08/18 06:39:53;;;;;;;15.98;10.95;;;25.20;65.40;;;;;;5058024;28;20033;-36
2021/08/18 06:42:19;;;;;;;13.88;12.38;;;25.20;66.00;;;;;;5057459;28;20017;-37
2021/08/18 06:44:48;;;;;;;11.65;10.45;;;25.30;65.40;;;;;;5057452;28;20036;-36
2021/08/18 06:47:14;;;;;;;14.95;13.65;;;25.30;65.30;;;;;;5057681;28;20029;-37
2021/08/18 06:49:40;;;;;;;13.60;12.40;;;25.30;65.10;;;;;;5057433;28;20119;-37
2021/08/18 06:52:06;;;;;;;18.70;12.63;;;25.40;65.30;;;;;;5057344;28;20122;-37
2021/08/18 06:54:32;;;;;;;12.18;11.05;;;25.40;65.00;;;;;;5057582;28;20432;-36
2021/08/18 06:56:57;;;;;;;16.50;13.25;;;25.40;64.80;;;;;;5057760;28;20021;-37
2021/08/18 06:59:23;;;;;;;15.10;11.00;;;25.40;64.80;;;;;;5057529;28;20430;-36
2021/08/18 07:01:49;;;;;;;12.02;10.60;;;25.40;65.00;;;;;;5056970;28;20024;-37
2021/08/18 07:04:15;;;;;;;17.73;11.65;;;25.50;64.90;;;;;;5057265;28;20122;-37
2021/08/18 07:06:40;;;;;;;17.10;13.85;;;25.50;64.40;;;;;;5056914;28;20021;-37
2021/08/18 07:09:06;;;;;;;20.10;10.70;;;25.50;64.20;;;;;;5056742;28;20068;-37
2021/08/18 07:11:32;;;;;;;13.15;9.75;;;25.60;64.60;;;;;;5056638;28;20071;-37
2021/08/18 07:14:02;;;;;;;13.40;10.20;;;25.50;64.70;;;;;;5056970;28;20053;-36
2021/08/18 07:16:29;;;;;;;;;;;25.60;64.90;;;;;;5057065;28;20366;-36
2021/08/18 07:18:55;;;;;;;13.98;12.45;;;25.60;64.60;;;;;;5053703;28;20225;-36
2021/08/18 07:21:22;;;;;;;15.05;13.27;;;25.70;64.80;;;;;;5055619;28;20040;-35
2021/08/18 07:23:52;;;;;;;12.77;11.38;;;25.70;64.70;;;;;;5056477;28;20109;-37
2021/08/18 07:26:21;;;;;;;13.20;11.00;;;25.80;64.20;;;;;;5054558;28;20032;-37
2021/08/18 07:28:48;;;;;;;16.17;14.55;;;25.90;64.00;;;;;;5056026;28;20083;-36
2021/08/18 07:31:13;;;;;;;22.38;15.23;;;26.00;64.20;;;;;;5056654;28;20029;-36
2021/08/18 07:33:39;;;;;;;17.83;12.32;;;26.00;63.40;;;;;;5056239;28;20450;-37
2021/08/18 07:36:05;;;;;;;14.45;12.93;;;26.10;63.60;;;;;;5056690;28;20370;-36
2021/08/18 07:38:30;;;;;;;12.07;10.77;;;26.10;63.50;;;;;;5056002;28;20036;-37
2021/08/18 07:40:56;;;;;;;16.17;12.75;;;26.20;62.80;;;;;;5056365;28;20049;-36
2021/08/18 07:43:22;;;;;;;15.55;13.93;;;26.30;62.80;;;;;;5056512;28;20033;-37
2021/08/18 07:45:48;;;;;;;21.92;13.98;;;26.30;62.70;;;;;;5055503;28;20044;-37
2021/08/18 07:48:14;;;;;;;18.05;13.80;;;26.30;62.30;;;;;;5055590;28;20401;-36
2021/08/18 07:50:40;;;;;;;17.48;10.88;;;26.40;62.10;;;;;;5055891;28;20033;-36
2021/08/18 07:53:05;;;;;;;16.05;11.50;;;26.40;62.30;;;;;;5055493;28;20025;-36
2021/08/18 07:55:31;;;;;;;14.23;12.02;;;26.40;62.50;;;;;;5055999;28;20043;-36
2021/08/18 07:57:57;;;;;;;14.85;13.27;;;26.50;62.60;;;;;;5055715;28;20087;-37
2021/08/18 08:00:23;;;;;;;16.02;13.95;;;26.50;62.30;;;;;;5053437;28;20033;-36
2021/08/18 08:02:48;;;;;;;15.75;13.05;;;26.50;62.30;;;;;;5044147;28;20317;-36
2021/08/18 08:05:15;;;;;;;13.73;12.45;;;26.60;61.80;;;;;;5036033;28;20083;-37
2021/08/18 08:07:42;;;;;;;13.00;11.13;;;26.60;61.80;;;;;;5035521;28;20064;-36
2021/08/18 08:10:09;;;;;;;16.83;11.05;;;26.70;61.90;;;;;;5035815;28;20109;-36
2021/08/18 08:12:35;;;;;;;15.48;11.95;;;26.70;61.60;;;;;;5034126;28;20413;-37
2021/08/18 08:15:02;;;;;;;18.67;13.13;;;26.70;61.20;;;;;;5035310;28;20104;-37
2021/08/18 08:17:28;;;;;;;13.55;12.05;;;26.80;60.70;;;;;;5035093;28;20022;-37
2021/08/18 08:19:54;;;;;;;15.18;11.43;;;26.80;60.80;;;;;;5035859;28;20105;-37
2021/08/18 08:22:19;;;;;;;12.88;11.27;;;26.80;60.90;;;;;;5035407;28;20029;-37
2021/08/18 08:24:45;;;;;;;17.83;12.63;;;26.90;61.20;;;;;;5035650;28;20037;-36
2021/08/18 08:27:12;;;;;;;14.65;13.02;;;26.90;60.90;;;;;;5035567;28;20079;-36
2021/08/18 08:29:38;;;;;;;16.38;14.38;;;27.00;60.80;;;;;;5035657;28;20038;-37
2021/08/18 08:32:05;;;;;;;18.63;11.80;;;27.00;60.80;;;;;;5035428;28;20425;-36
2021/08/18 08:34:31;;;;;;;15.73;14.13;;;27.10;61.00;;;;;;5035366;28;20033;-36
2021/08/18 08:36:56;;;;;;;17.77;12.20;;;27.10;60.80;;;;;;5035263;28;20078;-37
2021/08/18 08:39:22;;;;;;;12.88;10.95;;;27.10;60.80;;;;;;5034729;28;20072;-36
2021/08/18 08:41:49;;;;;;;16.15;12.73;;;27.20;60.60;;;;;;5035417;28;20059;-36
2021/08/18 08:44:19;;;;;;;14.27;12.80;;;27.20;60.60;;;;;;5035586;28;20402;-36
2021/08/18 08:46:47;;;;;;;14.00;12.50;;;27.30;60.10;;;;;;5035564;28;20330;-37
2021/08/18 08:49:14;;;;;;;14.98;13.50;;;27.30;60.20;;;;;;5035175;28;20030;-37
2021/08/18 08:51:40;;;;;;;15.77;14.25;;;27.30;60.20;;;;;;5035318;28;20053;-36
2021/08/18 08:54:06;;;;;;;16.05;12.77;;;27.40;60.20;;;;;;5034896;28;20082;-36
2021/08/18 08:56:32;;;;;;;14.88;13.63;;;27.50;59.90;;;;;;5034310;28;20021;-36
2021/08/18 08:58:58;;;;;;;17.20;12.40;;;27.50;59.20;;;;;;5034753;28;20029;-37
2021/08/18 09:01:24;;;;;;;13.40;11.73;;;27.50;59.30;;;;;;5035151;28;20025;-36
2021/08/18 09:03:49;;;;;;;13.57;12.10;;;27.60;59.90;;;;;;5035658;28;20092;-37
2021/08/18 09:06:21;;;;;;;13.45;12.02;;;27.60;59.20;;;;;;5035841;28;20034;-36
2021/08/18 09:08:51;;;;;;;13.40;12.00;;;27.70;59.30;;;;;;5035478;28;20302;-36
2021/08/18 09:11:20;;;;;;;18.05;16.15;;;27.70;59.10;;;;;;5035649;28;20029;-37
2021/08/18 09:13:51;;;;;;;16.00;11.90;;;27.70;59.00;;;;;;5035418;28;20060;-36
2021/08/18 09:16:19;;;;;;;13.27;10.88;;;27.80;59.30;;;;;;5035061;28;20064;-37
2021/08/18 09:18:52;;;;;;;17.65;11.70;;;27.90;59.10;;;;;;5035056;28;20025;-36
2021/08/18 09:21:44;;;;;;;15.60;11.43;;;27.90;58.90;;;;;;5035399;28;20060;-37
2021/08/18 09:24:16;;;;;;;15.82;12.15;;;28.00;58.70;;;;;;5035981;28;20080;-37
2021/08/18 09:27:09;;;;;;;12.32;11.15;;;28.00;58.80;;;;;;5035134;28;20079;-37
2021/08/18 09:29:46;;;;;;;16.95;12.23;;;28.10;59.40;;;;;;5034909;28;20116;-36
2021/08/18 09:32:26;;;;;;;15.63;12.20;;;28.10;58.80;;;;;;5034940;28;20360;-37
2021/08/18 09:35:02;;;;;;;16.60;12.57;;;28.10;58.60;;;;;;5035393;28;20105;-37
2021/08/18 09:37:28;;;;;;;15.48;11.07;;;28.10;58.50;;;;;;5034751;28;20033;-36
2021/08/18 09:39:58;;;;;;;17.80;12.50;;;28.20;58.50;;;;;;5035138;28;20438;-36
2021/08/18 09:42:31;;;;;;;15.02;12.85;;;28.30;58.50;;;;;;5034683;28;20402;-36
2021/08/18 09:45:17;;;;;;;16.25;12.73;;;28.30;57.70;;;;;;5043456;28;20037;-36
2021/08/18 09:48:12;;;;;;;14.75;12.98;;;28.40;57.30;;;;;;5054658;28;20104;-37
2021/08/18 09:50:47;;;;;;;16.85;15.07;;;28.40;57.80;;;;;;5055829;28;20051;-36
2021/08/18 09:53:18;;;;;;;15.07;11.00;;;28.40;57.50;;;;;;5058450;28;20022;-37
2021/08/18 09:55:58;;;;;;;14.05;10.43;;;28.40;57.30;;;;;;5058386;28;20031;-37
2021/08/18 09:58:27;;;;;;;15.52;12.23;;;28.50;57.40;;;;;;5058568;28;20021;-37
2021/08/18 10:00:54;;;;;;;12.73;11.38;;;28.50;57.30;;;;;;5058452;28;20029;-37
2021/08/18 10:03:21;;;;;;;14.10;12.80;;;28.60;57.00;;;;;;5058480;28;20310;-36
2021/08/18 10:05:48;;;;;;;15.50;11.88;;;28.70;57.30;;;;;;5058326;28;20306;-36
2021/08/18 10:08:15;;;;;;;14.40;12.13;;;28.70;56.70;;;;;;5057760;28;20040;-37
2021/08/18 10:10:42;;;;;;;12.20;10.30;;;28.80;57.30;;;;;;5058219;28;20036;-37
2021/08/18 10:13:09;;;;;;;16.75;15.07;;;28.80;55.70;;;;;;5058053;28;20121;-37
2021/08/18 10:15:36;;;;;;;15.60;12.07;;;28.90;55.90;;;;;;5057749;28;20045;-37
2021/08/18 10:18:02;;;;;;;15.13;12.43;;;28.90;55.90;;;;;;5057884;28;20021;-37
2021/08/18 10:20:29;;;;;;;12.55;11.25;;;29.00;55.70;;;;;;5057763;28;20044;-37
2021/08/18 10:23:13;;;;;;;16.70;13.40;;;29.00;55.70;;;;;;5057954;28;20029;-37
2021/08/18 10:25:49;;;;;;;16.70;14.15;;;29.10;55.30;;;;;;5058298;28;20152;-36
2021/08/18 10:28:16;;;;;;;19.35;12.68;;;29.20;54.20;;;;;;5058065;28;20079;-37
2021/08/18 10:30:54;;;;;;;14.05;12.57;;;29.30;53.90;;;;;;5057950;28;20083;-37
2021/08/18 10:33:51;;;;;;;13.35;11.68;;;29.40;54.20;;;;;;5057615;28;20021;-37
2021/08/18 10:36:41;;;;;;;14.70;13.23;;;29.50;54.10;;;;;;5058121;28;20036;-37
2021/08/18 10:39:22;;;;;;;16.98;13.55;;;29.70;53.80;;;;;;5057769;28;20417;-37
2021/08/18 10:42:03;;;;;;;26.23;11.93;;;29.70;53.20;;;;;;5057779;28;20116;-37
2021/08/18 10:44:48;;;;;;;14.10;12.13;;;29.80;52.60;;;;;;5057409;28;20076;-37
2021/08/18 10:47:28;;;;;;;13.60;11.40;;;29.90;53.30;;;;;;5056992;28;20370;-37
2021/08/18 10:49:59;;;;;;;15.80;13.07;;;30.00;53.10;;;;;;5057671;28;20025;-37
2021/08/18 10:52:28;;;;;;;16.60;12.43;;;30.10;52.60;;;;;;5057198;28;20086;-37
2021/08/18 10:55:02;;;;;;;14.77;13.15;;;30.10;52.70;;;;;;5057701;28;20029;-36
2021/08/18 10:57:50;;;;;;;16.23;14.20;;;30.20;53.10;;;;;;5057056;28;20029;-37
2021/08/18 11:00:18;;;;;;;32.47;29.83;;;30.30;53.60;;;;;;5057556;28;20029;-37
2021/08/18 11:02:55;;;;;;;28.13;25.90;;;30.40;52.90;;;;;;5056300;28;20035;-36
2021/08/18 11:05:42;;;;;;;32.22;29.83;;;30.50;52.80;;;;;;5057437;28;20348;-36
2021/08/18 11:08:27;;;;;;;30.02;27.23;;;30.50;52.60;;;;;;5056783;28;20040;-36
2021/08/18 11:10:56;;;;;;;29.13;26.70;;;30.60;53.10;;;;;;5057651;28;20094;-36
2021/08/18 11:14:05;;;;;;;29.23;26.23;;;30.60;53.20;;;;;;5057146;28;20126;-37
2021/08/18 11:16:32;;;;;;;31.17;28.90;;;30.70;53.20;;;;;;5056857;28;20060;-37
2021/08/18 11:19:02;;;;;;;22.67;21.08;;;30.70;53.20;;;;;;5056639;28;20029;-37
2021/08/18 11:21:31;;;;;;;30.02;28.05;;;30.70;53.30;;;;;;5056881;28;20025;-37
2021/08/18 11:24:18;;;;;;;29.38;25.80;;;30.80;53.20;;;;;;5055854;28;20434;-37
2021/08/18 11:26:49;;;;;;;26.77;24.67;;;30.90;53.10;;;;;;5056533;28;20035;-38
2021/08/18 11:29:19;;;;;;;30.33;27.48;;;30.90;53.40;;;;;;5056845;28;20104;-37
2021/08/18 11:31:50;;;;;;;22.27;20.58;;;30.90;52.70;;;;;;5056578;28;20101;-37
2021/08/18 11:34:35;;;;;;;26.73;24.73;;;31.00;52.60;;;;;;5056814;28;20086;-37
2021/08/18 11:37:09;;;;;;;26.63;24.45;;;31.00;52.40;;;;;;5056460;28;20025;-37
2021/08/18 11:39:38;;;;;;;31.15;29.00;;;31.00;52.20;;;;;;5056520;28;20485;-37
2021/08/18 11:42:14;;;;;;;28.45;26.17;;;31.00;52.40;;;;;;5056540;28;20033;-37
2021/08/18 11:44:42;;;;;;;20.48;18.75;;;31.00;51.90;;;;;;5056736;28;20036;-37
2021/08/18 11:47:10;;;;;;;28.83;26.73;;;31.00;52.60;;;;;;5056268;28;20032;-37
2021/08/18 11:49:37;;;;;;;55.55;25.02;;;31.00;52.40;;;;;;5056230;28;20033;-37
2021/08/18 11:52:05;;;;;;;26.38;24.48;;;31.00;52.20;;;;;;5055712;28;20025;-36
2021/08/18 11:54:30;;;;;;;24.65;22.75;;;31.00;52.20;;;;;;5055856;28;20179;-37
2021/08/18 11:57:02;;;;;;;28.05;26.05;;;31.10;52.30;;;;;;5049997;28;20389;-36
2021/08/18 11:59:28;;;;;;;25.23;23.38;;;31.10;52.20;;;;;;5055970;28;20060;-37
2021/08/18 12:01:55;;;;;;;21.17;19.45;;;31.00;52.10;;;;;;5054310;28;20028;-37
2021/08/18 12:04:21;;;;;;;25.17;23.45;;;31.00;53.00;;;;;;5056117;28;20028;-37
2021/08/18 12:07:03;;;;;;;26.50;24.48;;;31.00;53.00;;;;;;5055214;28;20033;-37
2021/08/18 12:09:28;;;;;;;25.08;22.90;;;31.00;52.70;;;;;;5055750;28;20036;-37
2021/08/18 12:12:06;;;;;;;28.27;25.90;;;31.00;52.80;;;;;;5055031;28;20017;-37
2021/08/18 12:14:38;;;;;;;30.13;27.60;;;31.00;53.00;;;;;;5054762;28;20427;-37
2021/08/18 12:17:04;;;;;;;28.23;25.70;;;30.90;53.20;;;;;;5054900;28;20041;-38
2021/08/18 12:19:35;;;;;;;29.75;27.38;;;30.80;53.20;;;;;;5055604;28;20037;-37
2021/08/18 12:22:03;;;;;;;32.67;30.27;;;30.80;53.50;;;;;;5055556;28;20024;-37
2021/08/18 12:24:30;;;;;;;28.85;26.35;;;30.60;53.40;;;;;;5055466;28;20167;-37
2021/08/18 12:27:01;;;;;;;26.08;23.80;;;30.60;53.50;;;;;;5055307;28;20075;-37
2021/08/18 12:29:29;;;;;;;27.90;25.55;;;30.50;53.30;;;;;;5055418;28;20404;-37
2021/08/18 12:32:05;;;;;;;29.95;27.50;;;30.40;53.90;;;;;;5054883;28;20021;-37